sensor_id;sensor_type;location;lat;lon;timestamp;P1;durP1;ratioP1;P2;durP2;ratioP2
59167;SDS011;44948;55.046;73.266;2022-10-26T00:01:05;8.00;;;2.78;;
59167;SDS011;44948;55.046;73.266;2022-10-26T00:02:56;8.10;;;2.70;;
59167;SDS011;44948;55.046;73.266;2022-10-26T00:04:38;10.85;;;2.92;;
59167;SDS011;44948;55.046;73.266;2022-10-26T00:06:21;5.10;;;2.42;;
59167;SDS011;44948;55.046;73.266;2022-10-26T00:08:06;9.18;;;3.40;;
59167;SDS011;44948;55.046;73.266;2022-10-26T00:09:49;8.93;;;2.80;;
59167;SDS011;44948;55.046;73.266;2022-10-26T00:11:32;10.88;;;3.25;;
59167;SDS011;44948;55.046;73.266;2022-10-26T00:14:56;11.05;;;2.60;;
59167;SDS011;44948;55.046;73.266;2022-10-26T00:16:39;8.32;;;3.03;;
59167;SDS011;44948;55.046;73.266;2022-10-26T00:18:21;9.95;;;3.33;;
59167;SDS011;44948;55.046;73.266;2022-10-26T00:20:07;12.02;;;3.65;;
59167;SDS011;44948;55.046;73.266;2022-10-26T00:21:50;9.18;;;3.85;;
59167;SDS011;44948;55.046;73.266;2022-10-26T00:23:33;11.57;;;3.47;;
59167;SDS011;44948;55.046;73.266;2022-10-26T00:25:16;8.07;;;3.23;;
59167;SDS011;44948;55.046;73.266;2022-10-26T00:26:58;14.18;;;3.33;;
59167;SDS011;44948;55.046;73.266;2022-10-26T00:28:40;5.45;;;2.92;;
59167;SDS011;44948;55.046;73.266;2022-10-26T00:30:23;8.18;;;3.58;;
59167;SDS011;44948;55.046;73.266;2022-10-26T00:32:05;7.87;;;3.33;;
59167;SDS011;44948;55.046;73.266;2022-10-26T00:33:50;14.40;;;4.03;;
59167;SDS011;44948;55.046;73.266;2022-10-26T00:35:36;9.60;;;3.15;;
59167;SDS011;44948;55.046;73.266;2022-10-26T00:37:18;6.88;;;2.78;;
59167;SDS011;44948;55.046;73.266;2022-10-26T00:39:01;5.40;;;2.58;;
59167;SDS011;44948;55.046;73.266;2022-10-26T00:46:29;10.32;;;3.50;;
59167;SDS011;44948;55.046;73.266;2022-10-26T00:48:24;8.10;;;3.22;;
59167;SDS011;44948;55.046;73.266;2022-10-26T00:50:31;8.40;;;3.90;;
59167;SDS011;44948;55.046;73.266;2022-10-26T00:52:17;8.48;;;3.42;;
59167;SDS011;44948;55.046;73.266;2022-10-26T00:54:02;9.55;;;3.88;;
59167;SDS011;44948;55.046;73.266;2022-10-26T00:55:48;7.10;;;3.65;;
59167;SDS011;44948;55.046;73.266;2022-10-26T00:57:33;10.02;;;3.65;;
59167;SDS011;44948;55.046;73.266;2022-10-26T00:59:18;13.05;;;4.07;;
59167;SDS011;44948;55.046;73.266;2022-10-26T01:01:04;7.72;;;3.92;;
59167;SDS011;44948;55.046;73.266;2022-10-26T01:02:46;12.05;;;3.97;;
59167;SDS011;44948;55.046;73.266;2022-10-26T01:04:33;9.27;;;3.63;;
59167;SDS011;44948;55.046;73.266;2022-10-26T01:06:15;11.65;;;4.13;;
59167;SDS011;44948;55.046;73.266;2022-10-26T01:07:58;13.00;;;3.58;;
59167;SDS011;44948;55.046;73.266;2022-10-26T01:09:41;14.02;;;3.88;;
59167;SDS011;44948;55.046;73.266;2022-10-26T01:11:24;10.98;;;4.65;;
59167;SDS011;44948;55.046;73.266;2022-10-26T01:13:06;16.73;;;4.80;;
59167;SDS011;44948;55.046;73.266;2022-10-26T01:20:52;25.58;;;5.85;;
59167;SDS011;44948;55.046;73.266;2022-10-26T01:23:22;13.73;;;5.25;;
59167;SDS011;44948;55.046;73.266;2022-10-26T01:25:08;23.67;;;6.60;;
59167;SDS011;44948;55.046;73.266;2022-10-26T01:29:10;20.27;;;6.63;;
59167;SDS011;44948;55.046;73.266;2022-10-26T01:30:56;39.15;;;7.65;;
59167;SDS011;44948;55.046;73.266;2022-10-26T01:34:42;33.58;;;8.73;;
59167;SDS011;44948;55.046;73.266;2022-10-26T01:36:33;23.95;;;6.47;;
59167;SDS011;44948;55.046;73.266;2022-10-26T01:38:49;25.75;;;7.88;;
59167;SDS011;44948;55.046;73.266;2022-10-26T01:41:01;28.88;;;7.15;;
59167;SDS011;44948;55.046;73.266;2022-10-26T01:43:07;24.40;;;7.07;;
59167;SDS011;44948;55.046;73.266;2022-10-26T01:44:52;19.52;;;7.28;;
59167;SDS011;44948;55.046;73.266;2022-10-26T01:46:41;25.50;;;7.32;;
59167;SDS011;44948;55.046;73.266;2022-10-26T01:48:26;19.48;;;7.47;;
59167;SDS011;44948;55.046;73.266;2022-10-26T01:50:11;22.65;;;8.93;;
59167;SDS011;44948;55.046;73.266;2022-10-26T01:51:53;19.60;;;7.55;;
59167;SDS011;44948;55.046;73.266;2022-10-26T01:53:40;21.25;;;7.70;;
59167;SDS011;44948;55.046;73.266;2022-10-26T01:55:43;27.00;;;8.15;;
59167;SDS011;44948;55.046;73.266;2022-10-26T01:57:35;20.05;;;8.50;;
59167;SDS011;44948;55.046;73.266;2022-10-26T02:07:42;33.60;;;9.52;;
59167;SDS011;44948;55.046;73.266;2022-10-26T02:09:49;31.05;;;8.50;;
59167;SDS011;44948;55.046;73.266;2022-10-26T02:11:41;33.35;;;9.18;;
59167;SDS011;44948;55.046;73.266;2022-10-26T02:15:19;29.63;;;9.85;;
59167;SDS011;44948;55.046;73.266;2022-10-26T02:17:16;24.13;;;9.02;;
59167;SDS011;44948;55.046;73.266;2022-10-26T02:21:02;29.73;;;10.15;;
59167;SDS011;44948;55.046;73.266;2022-10-26T02:22:49;34.70;;;10.23;;
59167;SDS011;44948;55.046;73.266;2022-10-26T02:24:33;38.13;;;10.55;;
59167;SDS011;44948;55.046;73.266;2022-10-26T02:26:19;37.35;;;10.15;;
59167;SDS011;44948;55.046;73.266;2022-10-26T02:28:06;34.78;;;9.85;;
59167;SDS011;44948;55.046;73.266;2022-10-26T02:29:53;31.33;;;8.50;;
59167;SDS011;44948;55.046;73.266;2022-10-26T02:31:37;26.73;;;8.50;;
59167;SDS011;44948;55.046;73.266;2022-10-26T02:33:22;40.03;;;9.50;;
59167;SDS011;44948;55.046;73.266;2022-10-26T02:35:07;28.58;;;8.85;;
59167;SDS011;44948;55.046;73.266;2022-10-26T02:36:50;26.88;;;9.07;;
59167;SDS011;44948;55.046;73.266;2022-10-26T02:38:36;36.78;;;9.73;;
59167;SDS011;44948;55.046;73.266;2022-10-26T02:40:21;36.92;;;9.27;;
59167;SDS011;44948;55.046;73.266;2022-10-26T02:42:07;36.42;;;10.27;;
59167;SDS011;44948;55.046;73.266;2022-10-26T02:45:38;23.17;;;6.65;;
59167;SDS011;44948;55.046;73.266;2022-10-26T02:47:27;22.98;;;7.38;;
59167;SDS011;44948;55.046;73.266;2022-10-26T02:49:10;25.38;;;7.43;;
59167;SDS011;44948;55.046;73.266;2022-10-26T02:50:57;21.35;;;5.70;;
59167;SDS011;44948;55.046;73.266;2022-10-26T02:56:34;19.27;;;5.70;;
59167;SDS011;44948;55.046;73.266;2022-10-26T02:58:24;19.38;;;6.25;;
59167;SDS011;44948;55.046;73.266;2022-10-26T03:00:12;25.60;;;10.18;;
59167;SDS011;44948;55.046;73.266;2022-10-26T03:01:57;21.63;;;9.55;;
59167;SDS011;44948;55.046;73.266;2022-10-26T03:03:39;25.30;;;12.50;;
59167;SDS011;44948;55.046;73.266;2022-10-26T03:05:23;23.77;;;9.90;;
59167;SDS011;44948;55.046;73.266;2022-10-26T03:07:08;28.40;;;8.60;;
59167;SDS011;44948;55.046;73.266;2022-10-26T03:08:50;18.73;;;6.03;;
59167;SDS011;44948;55.046;73.266;2022-10-26T03:10:34;15.50;;;5.50;;
59167;SDS011;44948;55.046;73.266;2022-10-26T03:12:23;21.98;;;5.55;;
59167;SDS011;44948;55.046;73.266;2022-10-26T03:14:06;16.83;;;5.33;;
59167;SDS011;44948;55.046;73.266;2022-10-26T03:15:48;17.80;;;5.25;;
59167;SDS011;44948;55.046;73.266;2022-10-26T03:17:30;19.77;;;6.00;;
59167;SDS011;44948;55.046;73.266;2022-10-26T03:19:13;22.30;;;10.13;;
59167;SDS011;44948;55.046;73.266;2022-10-26T03:20:55;26.47;;;10.00;;
59167;SDS011;44948;55.046;73.266;2022-10-26T03:22:38;29.42;;;10.85;;
59167;SDS011;44948;55.046;73.266;2022-10-26T03:24:20;27.48;;;10.70;;
59167;SDS011;44948;55.046;73.266;2022-10-26T03:26:03;29.45;;;9.93;;
59167;SDS011;44948;55.046;73.266;2022-10-26T03:27:45;18.10;;;7.65;;
59167;SDS011;44948;55.046;73.266;2022-10-26T03:29:28;31.17;;;10.13;;
59167;SDS011;44948;55.046;73.266;2022-10-26T03:31:10;41.95;;;16.17;;
59167;SDS011;44948;55.046;73.266;2022-10-26T03:32:53;23.50;;;8.18;;
59167;SDS011;44948;55.046;73.266;2022-10-26T03:34:36;16.80;;;4.53;;
59167;SDS011;44948;55.046;73.266;2022-10-26T03:36:18;10.73;;;4.63;;
59167;SDS011;44948;55.046;73.266;2022-10-26T03:38:01;11.40;;;4.37;;
59167;SDS011;44948;55.046;73.266;2022-10-26T03:39:43;20.02;;;4.03;;
59167;SDS011;44948;55.046;73.266;2022-10-26T03:41:26;14.88;;;3.97;;
59167;SDS011;44948;55.046;73.266;2022-10-26T03:43:08;17.58;;;4.30;;
59167;SDS011;44948;55.046;73.266;2022-10-26T03:44:51;14.90;;;4.10;;
59167;SDS011;44948;55.046;73.266;2022-10-26T03:46:33;27.60;;;4.93;;
59167;SDS011;44948;55.046;73.266;2022-10-26T03:48:16;19.35;;;5.30;;
59167;SDS011;44948;55.046;73.266;2022-10-26T03:49:58;18.15;;;5.28;;
59167;SDS011;44948;55.046;73.266;2022-10-26T03:51:41;13.80;;;4.93;;
59167;SDS011;44948;55.046;73.266;2022-10-26T03:53:24;14.80;;;4.65;;
59167;SDS011;44948;55.046;73.266;2022-10-26T03:56:49;19.95;;;6.00;;
59167;SDS011;44948;55.046;73.266;2022-10-26T03:58:34;26.17;;;5.63;;
59167;SDS011;44948;55.046;73.266;2022-10-26T04:00:16;23.75;;;4.93;;
59167;SDS011;44948;55.046;73.266;2022-10-26T04:03:41;27.55;;;5.65;;
59167;SDS011;44948;55.046;73.266;2022-10-26T04:05:25;18.92;;;5.38;;
59167;SDS011;44948;55.046;73.266;2022-10-26T04:07:09;14.65;;;5.03;;
59167;SDS011;44948;55.046;73.266;2022-10-26T04:08:51;17.45;;;5.55;;
59167;SDS011;44948;55.046;73.266;2022-10-26T04:10:38;16.52;;;4.72;;
59167;SDS011;44948;55.046;73.266;2022-10-26T04:12:21;16.27;;;5.15;;
59167;SDS011;44948;55.046;73.266;2022-10-26T04:14:03;12.77;;;4.35;;
59167;SDS011;44948;55.046;73.266;2022-10-26T04:15:46;21.10;;;4.70;;
59167;SDS011;44948;55.046;73.266;2022-10-26T04:17:28;13.48;;;4.40;;
59167;SDS011;44948;55.046;73.266;2022-10-26T04:19:10;21.65;;;4.97;;
59167;SDS011;44948;55.046;73.266;2022-10-26T04:20:53;16.70;;;5.40;;
59167;SDS011;44948;55.046;73.266;2022-10-26T04:22:35;14.43;;;5.33;;
59167;SDS011;44948;55.046;73.266;2022-10-26T04:24:18;13.35;;;4.78;;
59167;SDS011;44948;55.046;73.266;2022-10-26T04:26:00;14.10;;;5.25;;
59167;SDS011;44948;55.046;73.266;2022-10-26T04:27:42;15.63;;;4.25;;
59167;SDS011;44948;55.046;73.266;2022-10-26T04:29:25;15.67;;;4.83;;
59167;SDS011;44948;55.046;73.266;2022-10-26T04:31:07;17.38;;;5.07;;
59167;SDS011;44948;55.046;73.266;2022-10-26T04:32:50;17.57;;;5.20;;
59167;SDS011;44948;55.046;73.266;2022-10-26T04:34:32;11.23;;;4.55;;
59167;SDS011;44948;55.046;73.266;2022-10-26T04:36:15;16.27;;;4.97;;
59167;SDS011;44948;55.046;73.266;2022-10-26T04:37:58;15.95;;;4.15;;
59167;SDS011;44948;55.046;73.266;2022-10-26T04:39:41;17.85;;;5.00;;
59167;SDS011;44948;55.046;73.266;2022-10-26T04:41:24;12.60;;;4.85;;
59167;SDS011;44948;55.046;73.266;2022-10-26T04:43:06;13.05;;;4.78;;
59167;SDS011;44948;55.046;73.266;2022-10-26T04:44:49;22.15;;;5.45;;
59167;SDS011;44948;55.046;73.266;2022-10-26T04:46:32;19.02;;;5.57;;
59167;SDS011;44948;55.046;73.266;2022-10-26T04:48:15;20.27;;;5.82;;
59167;SDS011;44948;55.046;73.266;2022-10-26T04:49:58;22.02;;;6.20;;
59167;SDS011;44948;55.046;73.266;2022-10-26T04:51:40;24.38;;;6.28;;
59167;SDS011;44948;55.046;73.266;2022-10-26T04:53:23;21.58;;;6.97;;
59167;SDS011;44948;55.046;73.266;2022-10-26T04:55:05;19.27;;;6.93;;
59167;SDS011;44948;55.046;73.266;2022-10-26T04:56:49;21.15;;;7.78;;
59167;SDS011;44948;55.046;73.266;2022-10-26T04:58:32;22.38;;;7.18;;
59167;SDS011;44948;55.046;73.266;2022-10-26T05:00:14;22.77;;;7.75;;
59167;SDS011;44948;55.046;73.266;2022-10-26T05:01:57;23.77;;;6.90;;
59167;SDS011;44948;55.046;73.266;2022-10-26T05:03:39;24.13;;;6.55;;
59167;SDS011;44948;55.046;73.266;2022-10-26T05:05:22;28.02;;;6.47;;
59167;SDS011;44948;55.046;73.266;2022-10-26T05:07:04;14.13;;;5.67;;
59167;SDS011;44948;55.046;73.266;2022-10-26T05:08:47;20.23;;;5.63;;
59167;SDS011;44948;55.046;73.266;2022-10-26T05:10:30;21.25;;;6.70;;
59167;SDS011;44948;55.046;73.266;2022-10-26T05:12:12;17.00;;;6.07;;
59167;SDS011;44948;55.046;73.266;2022-10-26T05:13:55;17.25;;;6.30;;
59167;SDS011;44948;55.046;73.266;2022-10-26T05:15:37;17.88;;;5.95;;
59167;SDS011;44948;55.046;73.266;2022-10-26T05:17:20;17.45;;;6.03;;
59167;SDS011;44948;55.046;73.266;2022-10-26T05:19:03;15.10;;;5.87;;
59167;SDS011;44948;55.046;73.266;2022-10-26T05:22:30;18.23;;;5.75;;
59167;SDS011;44948;55.046;73.266;2022-10-26T05:24:15;22.70;;;5.80;;
59167;SDS011;44948;55.046;73.266;2022-10-26T05:25:57;17.65;;;6.50;;
59167;SDS011;44948;55.046;73.266;2022-10-26T05:27:40;18.20;;;5.68;;
59167;SDS011;44948;55.046;73.266;2022-10-26T05:29:22;17.20;;;6.05;;
59167;SDS011;44948;55.046;73.266;2022-10-26T05:31:05;19.47;;;6.07;;
59167;SDS011;44948;55.046;73.266;2022-10-26T05:32:54;17.17;;;6.07;;
59167;SDS011;44948;55.046;73.266;2022-10-26T05:34:37;20.85;;;6.82;;
59167;SDS011;44948;55.046;73.266;2022-10-26T05:36:19;19.48;;;6.63;;
59167;SDS011;44948;55.046;73.266;2022-10-26T05:38:08;22.92;;;5.90;;
59167;SDS011;44948;55.046;73.266;2022-10-26T05:39:51;19.75;;;6.28;;
59167;SDS011;44948;55.046;73.266;2022-10-26T05:41:34;14.23;;;5.43;;
59167;SDS011;44948;55.046;73.266;2022-10-26T05:43:17;12.77;;;5.03;;
59167;SDS011;44948;55.046;73.266;2022-10-26T05:45:00;18.50;;;6.60;;
59167;SDS011;44948;55.046;73.266;2022-10-26T05:46:43;18.88;;;7.20;;
59167;SDS011;44948;55.046;73.266;2022-10-26T05:48:27;21.60;;;7.63;;
59167;SDS011;44948;55.046;73.266;2022-10-26T05:50:10;20.58;;;6.32;;
59167;SDS011;44948;55.046;73.266;2022-10-26T05:51:54;18.73;;;6.53;;
59167;SDS011;44948;55.046;73.266;2022-10-26T05:53:37;17.35;;;5.93;;
59167;SDS011;44948;55.046;73.266;2022-10-26T05:55:19;11.27;;;6.15;;
59167;SDS011;44948;55.046;73.266;2022-10-26T05:57:02;22.45;;;6.32;;
59167;SDS011;44948;55.046;73.266;2022-10-26T05:58:46;21.05;;;5.88;;
59167;SDS011;44948;55.046;73.266;2022-10-26T06:00:29;15.38;;;5.60;;
59167;SDS011;44948;55.046;73.266;2022-10-26T06:02:49;14.77;;;5.38;;
59167;SDS011;44948;55.046;73.266;2022-10-26T06:04:37;23.85;;;5.75;;
59167;SDS011;44948;55.046;73.266;2022-10-26T06:06:23;17.33;;;6.18;;
59167;SDS011;44948;55.046;73.266;2022-10-26T06:08:11;20.65;;;6.53;;
59167;SDS011;44948;55.046;73.266;2022-10-26T06:09:54;21.50;;;6.88;;
59167;SDS011;44948;55.046;73.266;2022-10-26T06:11:37;23.45;;;6.05;;
59167;SDS011;44948;55.046;73.266;2022-10-26T06:13:20;13.75;;;6.10;;
59167;SDS011;44948;55.046;73.266;2022-10-26T06:15:03;19.45;;;6.57;;
59167;SDS011;44948;55.046;73.266;2022-10-26T06:29:46;21.15;;;7.00;;
59167;SDS011;44948;55.046;73.266;2022-10-26T06:31:50;26.38;;;7.32;;
59167;SDS011;44948;55.046;73.266;2022-10-26T06:33:32;22.57;;;6.53;;
59167;SDS011;44948;55.046;73.266;2022-10-26T06:37:19;19.90;;;7.05;;
59167;SDS011;44948;55.046;73.266;2022-10-26T06:39:03;28.07;;;7.23;;
59167;SDS011;44948;55.046;73.266;2022-10-26T06:40:49;23.50;;;6.63;;
59167;SDS011;44948;55.046;73.266;2022-10-26T06:42:33;21.02;;;6.80;;
59167;SDS011;44948;55.046;73.266;2022-10-26T06:44:22;17.08;;;6.38;;
59167;SDS011;44948;55.046;73.266;2022-10-26T06:51:45;35.53;;;13.57;;
59167;SDS011;44948;55.046;73.266;2022-10-26T06:53:37;30.55;;;12.52;;
59167;SDS011;44948;55.046;73.266;2022-10-26T06:55:26;19.55;;;6.63;;
59167;SDS011;44948;55.046;73.266;2022-10-26T06:57:21;29.17;;;8.48;;
59167;SDS011;44948;55.046;73.266;2022-10-26T06:59:11;19.10;;;6.60;;
59167;SDS011;44948;55.046;73.266;2022-10-26T07:01:12;19.67;;;6.07;;
59167;SDS011;44948;55.046;73.266;2022-10-26T07:02:54;21.83;;;8.40;;
59167;SDS011;44948;55.046;73.266;2022-10-26T07:04:38;16.13;;;5.80;;
59167;SDS011;44948;55.046;73.266;2022-10-26T07:08:04;15.88;;;6.53;;
59167;SDS011;44948;55.046;73.266;2022-10-26T07:09:47;21.75;;;6.43;;
59167;SDS011;44948;55.046;73.266;2022-10-26T07:11:29;25.00;;;6.72;;
59167;SDS011;44948;55.046;73.266;2022-10-26T07:13:12;16.33;;;6.15;;
59167;SDS011;44948;55.046;73.266;2022-10-26T07:14:54;25.08;;;8.52;;
59167;SDS011;44948;55.046;73.266;2022-10-26T07:16:36;20.27;;;9.13;;
59167;SDS011;44948;55.046;73.266;2022-10-26T07:18:19;28.67;;;10.10;;
59167;SDS011;44948;55.046;73.266;2022-10-26T07:20:01;29.30;;;7.60;;
59167;SDS011;44948;55.046;73.266;2022-10-26T07:21:44;16.43;;;7.43;;
59167;SDS011;44948;55.046;73.266;2022-10-26T07:23:26;24.13;;;7.50;;
59167;SDS011;44948;55.046;73.266;2022-10-26T07:25:09;23.50;;;7.75;;
59167;SDS011;44948;55.046;73.266;2022-10-26T07:26:53;19.52;;;7.05;;
59167;SDS011;44948;55.046;73.266;2022-10-26T07:28:36;26.33;;;7.45;;
59167;SDS011;44948;55.046;73.266;2022-10-26T07:30:18;22.48;;;8.65;;
59167;SDS011;44948;55.046;73.266;2022-10-26T07:32:01;20.05;;;8.75;;
59167;SDS011;44948;55.046;73.266;2022-10-26T07:33:43;29.45;;;11.20;;
59167;SDS011;44948;55.046;73.266;2022-10-26T07:35:25;23.63;;;8.38;;
59167;SDS011;44948;55.046;73.266;2022-10-26T07:37:08;45.67;;;19.77;;
59167;SDS011;44948;55.046;73.266;2022-10-26T07:38:51;38.50;;;16.63;;
59167;SDS011;44948;55.046;73.266;2022-10-26T07:40:35;35.45;;;10.70;;
59167;SDS011;44948;55.046;73.266;2022-10-26T07:42:18;18.67;;;7.57;;
59167;SDS011;44948;55.046;73.266;2022-10-26T07:44:02;20.75;;;7.93;;
59167;SDS011;44948;55.046;73.266;2022-10-26T07:47:29;23.25;;;8.55;;
59167;SDS011;44948;55.046;73.266;2022-10-26T07:49:11;22.20;;;7.90;;
59167;SDS011;44948;55.046;73.266;2022-10-26T07:50:54;39.78;;;13.52;;
59167;SDS011;44948;55.046;73.266;2022-10-26T07:52:36;26.13;;;10.23;;
59167;SDS011;44948;55.046;73.266;2022-10-26T07:54:19;32.33;;;10.55;;
59167;SDS011;44948;55.046;73.266;2022-10-26T07:56:02;24.95;;;10.43;;
59167;SDS011;44948;55.046;73.266;2022-10-26T07:57:44;60.25;;;19.75;;
59167;SDS011;44948;55.046;73.266;2022-10-26T07:59:27;40.45;;;16.75;;
59167;SDS011;44948;55.046;73.266;2022-10-26T08:01:11;26.98;;;9.90;;
59167;SDS011;44948;55.046;73.266;2022-10-26T08:02:55;26.08;;;10.25;;
59167;SDS011;44948;55.046;73.266;2022-10-26T08:04:37;50.40;;;18.70;;
59167;SDS011;44948;55.046;73.266;2022-10-26T08:06:20;31.98;;;14.25;;
59167;SDS011;44948;55.046;73.266;2022-10-26T08:09:46;27.63;;;8.55;;
59167;SDS011;44948;55.046;73.266;2022-10-26T08:11:28;21.10;;;9.13;;
59167;SDS011;44948;55.046;73.266;2022-10-26T08:13:10;26.00;;;8.63;;
59167;SDS011;44948;55.046;73.266;2022-10-26T08:14:53;28.00;;;9.68;;
59167;SDS011;44948;55.046;73.266;2022-10-26T08:16:36;33.97;;;11.07;;
59167;SDS011;44948;55.046;73.266;2022-10-26T08:18:20;26.88;;;10.85;;
59167;SDS011;44948;55.046;73.266;2022-10-26T08:20:03;25.98;;;9.23;;
59167;SDS011;44948;55.046;73.266;2022-10-26T08:21:48;29.52;;;10.18;;
59167;SDS011;44948;55.046;73.266;2022-10-26T08:23:31;28.55;;;9.75;;
59167;SDS011;44948;55.046;73.266;2022-10-26T08:26:56;27.42;;;8.45;;
59167;SDS011;44948;55.046;73.266;2022-10-26T08:28:38;24.57;;;8.77;;
59167;SDS011;44948;55.046;73.266;2022-10-26T08:30:21;31.00;;;7.57;;
59167;SDS011;44948;55.046;73.266;2022-10-26T08:32:04;20.90;;;7.75;;
59167;SDS011;44948;55.046;73.266;2022-10-26T08:33:46;22.17;;;7.17;;
59167;SDS011;44948;55.046;73.266;2022-10-26T08:35:29;27.02;;;8.18;;
59167;SDS011;44948;55.046;73.266;2022-10-26T08:37:12;30.98;;;9.27;;
59167;SDS011;44948;55.046;73.266;2022-10-26T08:38:55;28.27;;;8.88;;
59167;SDS011;44948;55.046;73.266;2022-10-26T08:40:40;24.48;;;8.75;;
59167;SDS011;44948;55.046;73.266;2022-10-26T08:42:27;28.65;;;8.57;;
59167;SDS011;44948;55.046;73.266;2022-10-26T08:44:19;29.60;;;8.30;;
59167;SDS011;44948;55.046;73.266;2022-10-26T08:47:53;22.63;;;6.60;;
59167;SDS011;44948;55.046;73.266;2022-10-26T08:51:32;24.08;;;7.22;;
59167;SDS011;44948;55.046;73.266;2022-10-26T08:55:10;29.55;;;8.20;;
59167;SDS011;44948;55.046;73.266;2022-10-26T08:56:58;29.00;;;8.23;;
59167;SDS011;44948;55.046;73.266;2022-10-26T09:00:54;21.13;;;6.65;;
59167;SDS011;44948;55.046;73.266;2022-10-26T09:02:36;21.70;;;6.72;;
59167;SDS011;44948;55.046;73.266;2022-10-26T09:04:19;28.15;;;7.68;;
59167;SDS011;44948;55.046;73.266;2022-10-26T09:08:11;23.83;;;7.60;;
59167;SDS011;44948;55.046;73.266;2022-10-26T09:10:27;24.90;;;7.82;;
59167;SDS011;44948;55.046;73.266;2022-10-26T09:12:26;30.45;;;6.78;;
59167;SDS011;44948;55.046;73.266;2022-10-26T09:14:17;21.75;;;7.88;;
59167;SDS011;44948;55.046;73.266;2022-10-26T09:24:53;25.33;;;7.15;;
59167;SDS011;44948;55.046;73.266;2022-10-26T09:26:44;26.75;;;7.90;;
59167;SDS011;44948;55.046;73.266;2022-10-26T09:28:34;25.50;;;8.18;;
59167;SDS011;44948;55.046;73.266;2022-10-26T09:30:19;24.27;;;7.63;;
59167;SDS011;44948;55.046;73.266;2022-10-26T09:32:02;23.08;;;8.13;;
59167;SDS011;44948;55.046;73.266;2022-10-26T09:33:49;19.98;;;8.45;;
59167;SDS011;44948;55.046;73.266;2022-10-26T09:37:44;21.40;;;7.72;;
59167;SDS011;44948;55.046;73.266;2022-10-26T09:39:54;31.65;;;7.75;;
59167;SDS011;44948;55.046;73.266;2022-10-26T09:41:39;28.65;;;8.77;;
59167;SDS011;44948;55.046;73.266;2022-10-26T09:48:55;28.02;;;9.52;;
59167;SDS011;44948;55.046;73.266;2022-10-26T09:50:41;34.63;;;8.70;;
59167;SDS011;44948;55.046;73.266;2022-10-26T09:52:27;26.55;;;8.82;;
59167;SDS011;44948;55.046;73.266;2022-10-26T09:54:19;25.23;;;8.68;;
59167;SDS011;44948;55.046;73.266;2022-10-26T09:56:04;24.25;;;8.88;;
59167;SDS011;44948;55.046;73.266;2022-10-26T09:57:50;24.92;;;7.80;;
59167;SDS011;44948;55.046;73.266;2022-10-26T09:59:38;20.35;;;7.10;;
59167;SDS011;44948;55.046;73.266;2022-10-26T10:01:31;28.02;;;7.78;;
59167;SDS011;44948;55.046;73.266;2022-10-26T10:05:02;25.02;;;7.70;;
59167;SDS011;44948;55.046;73.266;2022-10-26T10:07:12;21.65;;;7.38;;
59167;SDS011;44948;55.046;73.266;2022-10-26T10:09:05;26.17;;;6.85;;
59167;SDS011;44948;55.046;73.266;2022-10-26T10:10:58;24.70;;;7.95;;
59167;SDS011;44948;55.046;73.266;2022-10-26T10:12:51;30.90;;;7.32;;
59167;SDS011;44948;55.046;73.266;2022-10-26T10:14:38;29.35;;;8.25;;
59167;SDS011;44948;55.046;73.266;2022-10-26T10:16:23;22.98;;;6.57;;
59167;SDS011;44948;55.046;73.266;2022-10-26T10:18:17;28.30;;;7.33;;
59167;SDS011;44948;55.046;73.266;2022-10-26T10:20:07;24.48;;;7.22;;
59167;SDS011;44948;55.046;73.266;2022-10-26T10:22:00;16.98;;;7.75;;
59167;SDS011;44948;55.046;73.266;2022-10-26T10:23:50;33.50;;;8.50;;
59167;SDS011;44948;55.046;73.266;2022-10-26T10:25:34;31.35;;;8.35;;
59167;SDS011;44948;55.046;73.266;2022-10-26T10:27:20;30.35;;;8.48;;
59167;SDS011;44948;55.046;73.266;2022-10-26T10:29:08;33.22;;;8.45;;
59167;SDS011;44948;55.046;73.266;2022-10-26T10:30:58;34.20;;;8.90;;
59167;SDS011;44948;55.046;73.266;2022-10-26T10:32:42;37.60;;;8.30;;
59167;SDS011;44948;55.046;73.266;2022-10-26T10:34:25;23.95;;;7.53;;
59167;SDS011;44948;55.046;73.266;2022-10-26T10:36:09;28.48;;;8.90;;
59167;SDS011;44948;55.046;73.266;2022-10-26T10:37:57;30.45;;;9.15;;
59167;SDS011;44948;55.046;73.266;2022-10-26T10:39:40;27.83;;;8.77;;
59167;SDS011;44948;55.046;73.266;2022-10-26T10:43:12;43.00;;;11.20;;
59167;SDS011;44948;55.046;73.266;2022-10-26T10:44:56;45.58;;;11.52;;
59167;SDS011;44948;55.046;73.266;2022-10-26T10:46:40;37.85;;;11.13;;
59167;SDS011;44948;55.046;73.266;2022-10-26T10:48:26;35.83;;;10.95;;
59167;SDS011;44948;55.046;73.266;2022-10-26T10:51:55;40.83;;;10.95;;
59167;SDS011;44948;55.046;73.266;2022-10-26T10:55:31;50.35;;;16.88;;
59167;SDS011;44948;55.046;73.266;2022-10-26T10:57:26;44.10;;;12.77;;
59167;SDS011;44948;55.046;73.266;2022-10-26T10:59:34;33.20;;;12.43;;
59167;SDS011;44948;55.046;73.266;2022-10-26T11:01:20;38.70;;;12.77;;
59167;SDS011;44948;55.046;73.266;2022-10-26T11:03:23;41.92;;;13.32;;
59167;SDS011;44948;55.046;73.266;2022-10-26T11:07:35;47.38;;;14.40;;
59167;SDS011;44948;55.046;73.266;2022-10-26T11:09:27;41.72;;;14.52;;
59167;SDS011;44948;55.046;73.266;2022-10-26T11:11:22;38.38;;;12.73;;
59167;SDS011;44948;55.046;73.266;2022-10-26T11:13:17;39.97;;;14.77;;
59167;SDS011;44948;55.046;73.266;2022-10-26T11:15:11;38.97;;;18.15;;
59167;SDS011;44948;55.046;73.266;2022-10-26T11:17:05;40.60;;;17.40;;
59167;SDS011;44948;55.046;73.266;2022-10-26T11:19:01;36.28;;;16.13;;
59167;SDS011;44948;55.046;73.266;2022-10-26T11:20:50;41.63;;;15.60;;
59167;SDS011;44948;55.046;73.266;2022-10-26T11:22:43;41.13;;;15.75;;
59167;SDS011;44948;55.046;73.266;2022-10-26T11:24:44;33.88;;;14.60;;
59167;SDS011;44948;55.046;73.266;2022-10-26T11:26:50;33.22;;;13.35;;
59167;SDS011;44948;55.046;73.266;2022-10-26T11:28:38;44.63;;;17.33;;
59167;SDS011;44948;55.046;73.266;2022-10-26T11:32:14;47.28;;;16.60;;
59167;SDS011;44948;55.046;73.266;2022-10-26T11:34:33;45.40;;;16.75;;
59167;SDS011;44948;55.046;73.266;2022-10-26T11:36:25;48.50;;;15.80;;
59167;SDS011;44948;55.046;73.266;2022-10-26T11:40:28;43.90;;;14.52;;
59167;SDS011;44948;55.046;73.266;2022-10-26T11:44:34;43.95;;;13.32;;
59167;SDS011;44948;55.046;73.266;2022-10-26T11:46:23;33.33;;;12.80;;
59167;SDS011;44948;55.046;73.266;2022-10-26T11:48:13;31.33;;;12.20;;
59167;SDS011;44948;55.046;73.266;2022-10-26T11:50:10;31.95;;;12.43;;
59167;SDS011;44948;55.046;73.266;2022-10-26T11:54:27;37.30;;;12.82;;
59167;SDS011;44948;55.046;73.266;2022-10-26T11:56:32;26.90;;;12.05;;
59167;SDS011;44948;55.046;73.266;2022-10-26T11:58:20;33.38;;;11.35;;
59167;SDS011;44948;55.046;73.266;2022-10-26T12:00:07;33.38;;;14.93;;
59167;SDS011;44948;55.046;73.266;2022-10-26T12:02:03;34.45;;;15.77;;
59167;SDS011;44948;55.046;73.266;2022-10-26T12:03:52;43.17;;;17.50;;
59167;SDS011;44948;55.046;73.266;2022-10-26T12:05:48;37.30;;;16.25;;
59167;SDS011;44948;55.046;73.266;2022-10-26T12:07:34;26.88;;;12.73;;
59167;SDS011;44948;55.046;73.266;2022-10-26T12:09:31;24.65;;;11.50;;
59167;SDS011;44948;55.046;73.266;2022-10-26T12:13:24;32.45;;;11.38;;
59167;SDS011;44948;55.046;73.266;2022-10-26T12:22:45;20.48;;;8.95;;